sensor_id;sensor_type;location;lat;lon;timestamp;pressure;altitude;pressure_sealevel;temperature;humidity
37856;BME280;23694;43.274;26.924;2023-03-25T00:01:07;98602.25;;;9.37;78.18
37856;BME280;23694;43.274;26.924;2023-03-25T00:03:39;98598.16;;;9.33;78.37
37856;BME280;23694;43.274;26.924;2023-03-25T00:06:12;98599.84;;;9.34;78.08
37856;BME280;23694;43.274;26.924;2023-03-25T00:08:38;98591.91;;;9.23;78.86
37856;BME280;23694;43.274;26.924;2023-03-25T00:11:05;98588.88;;;9.29;78.57
37856;BME280;23694;43.274;26.924;2023-03-25T00:13:33;98586.34;;;9.28;78.46
37856;BME280;23694;43.274;26.924;2023-03-25T00:16:01;98580.09;;;9.30;78.45
37856;BME280;23694;43.274;26.924;2023-03-25T00:18:29;98578.94;;;9.34;78.36
37856;BME280;23694;43.274;26.924;2023-03-25T00:20:59;98571.31;;;9.18;78.38
37856;BME280;23694;43.274;26.924;2023-03-25T00:23:28;98570.06;;;9.24;78.35
37856;BME280;23694;43.274;26.924;2023-03-25T00:25:55;98569.09;;;9.25;78.10
37856;BME280;23694;43.274;26.924;2023-03-25T00:28:32;98569.63;;;9.17;77.66
37856;BME280;23694;43.274;26.924;2023-03-25T00:31:00;98566.72;;;9.22;77.72
37856;BME280;23694;43.274;26.924;2023-03-25T00:33:27;98567.75;;;9.19;78.39
37856;BME280;23694;43.274;26.924;2023-03-25T00:35:54;98561.91;;;9.16;78.17
37856;BME280;23694;43.274;26.924;2023-03-25T00:38:32;98565.94;;;9.07;78.12
37856;BME280;23694;43.274;26.924;2023-03-25T00:43:34;98547.28;;;9.13;77.13
37856;BME280;23694;43.274;26.924;2023-03-25T00:46:00;98545.59;;;9.12;76.49
37856;BME280;23694;43.274;26.924;2023-03-25T00:48:26;98548.91;;;9.02;77.10
37856;BME280;23694;43.274;26.924;2023-03-25T00:50:52;98550.09;;;9.10;77.01
37856;BME280;23694;43.274;26.924;2023-03-25T00:53:18;98535.75;;;9.03;77.63
37856;BME280;23694;43.274;26.924;2023-03-25T00:55:44;98537.63;;;9.01;76.70
37856;BME280;23694;43.274;26.924;2023-03-25T00:58:11;98528.34;;;8.97;76.64
37856;BME280;23694;43.274;26.924;2023-03-25T01:00:37;98529.16;;;8.98;75.95
37856;BME280;23694;43.274;26.924;2023-03-25T01:03:03;98531.69;;;8.99;76.75
37856;BME280;23694;43.274;26.924;2023-03-25T01:05:29;98528.34;;;8.97;76.59
37856;BME280;23694;43.274;26.924;2023-03-25T01:07:55;98528.03;;;9.02;76.12
37856;BME280;23694;43.274;26.924;2023-03-25T01:10:21;98529.06;;;8.99;75.73
37856;BME280;23694;43.274;26.924;2023-03-25T01:12:48;98532.72;;;8.97;76.04
37856;BME280;23694;43.274;26.924;2023-03-25T01:15:14;98530.00;;;8.85;76.67
37856;BME280;23694;43.274;26.924;2023-03-25T01:17:40;98530.63;;;8.76;76.60
37856;BME280;23694;43.274;26.924;2023-03-25T01:20:06;98522.38;;;8.82;76.34
37856;BME280;23694;43.274;26.924;2023-03-25T01:22:34;98509.00;;;8.74;76.53
37856;BME280;23694;43.274;26.924;2023-03-25T01:25:00;98521.84;;;8.77;76.90
37856;BME280;23694;43.274;26.924;2023-03-25T01:27:26;98512.56;;;8.73;77.03
37856;BME280;23694;43.274;26.924;2023-03-25T01:29:52;98518.72;;;8.72;77.96
37856;BME280;23694;43.274;26.924;2023-03-25T01:32:19;98511.19;;;8.68;77.62
37856;BME280;23694;43.274;26.924;2023-03-25T01:34:45;98516.72;;;8.63;78.04
37856;BME280;23694;43.274;26.924;2023-03-25T01:37:12;98514.22;;;8.62;78.16
37856;BME280;23694;43.274;26.924;2023-03-25T01:39:38;98513.59;;;8.58;78.13
37856;BME280;23694;43.274;26.924;2023-03-25T01:42:04;98504.00;;;8.58;77.68
37856;BME280;23694;43.274;26.924;2023-03-25T01:46:59;98496.88;;;8.61;77.13
37856;BME280;23694;43.274;26.924;2023-03-25T01:49:32;98504.00;;;8.58;77.52
37856;BME280;23694;43.274;26.924;2023-03-25T01:52:08;98498.44;;;8.50;77.39
37856;BME280;23694;43.274;26.924;2023-03-25T01:54:36;98493.34;;;8.49;78.08
37856;BME280;23694;43.274;26.924;2023-03-25T01:57:04;98479.34;;;8.50;77.98
37856;BME280;23694;43.274;26.924;2023-03-25T01:59:31;98484.88;;;8.45;78.73
37856;BME280;23694;43.274;26.924;2023-03-25T02:02:00;98475.06;;;8.49;77.45
37856;BME280;23694;43.274;26.924;2023-03-25T02:04:44;98464.16;;;8.42;78.29
37856;BME280;23694;43.274;26.924;2023-03-25T02:07:16;98463.44;;;8.40;78.36
37856;BME280;23694;43.274;26.924;2023-03-25T02:09:43;98458.31;;;8.39;78.05
37856;BME280;23694;43.274;26.924;2023-03-25T02:12:09;98457.28;;;8.41;77.50
37856;BME280;23694;43.274;26.924;2023-03-25T02:14:36;98465.41;;;8.37;77.72
37856;BME280;23694;43.274;26.924;2023-03-25T02:30:47;98455.34;;;8.31;78.54
37856;BME280;23694;43.274;26.924;2023-03-25T02:41:27;98443.44;;;8.14;79.90
37856;BME280;23694;43.274;26.924;2023-03-25T02:44:01;98438.19;;;8.01;79.68
37856;BME280;23694;43.274;26.924;2023-03-25T02:46:30;98437.63;;;7.83;80.59
37856;BME280;23694;43.274;26.924;2023-03-25T02:49:04;98431.09;;;7.90;80.66
37856;BME280;23694;43.274;26.924;2023-03-25T02:51:37;98432.03;;;7.89;81.23
37856;BME280;23694;43.274;26.924;2023-03-25T02:54:10;98438.31;;;7.73;82.76
37856;BME280;23694;43.274;26.924;2023-03-25T02:56:39;98433.28;;;7.70;82.85
37856;BME280;23694;43.274;26.924;2023-03-25T02:59:07;98424.34;;;7.74;82.29
37856;BME280;23694;43.274;26.924;2023-03-25T03:01:35;98432.53;;;7.82;82.61
37856;BME280;23694;43.274;26.924;2023-03-25T03:04:01;98426.59;;;7.66;82.72
37856;BME280;23694;43.274;26.924;2023-03-25T03:06:27;98429.66;;;7.72;83.38
37856;BME280;23694;43.274;26.924;2023-03-25T03:17:24;98422.94;;;7.82;82.37
37856;BME280;23694;43.274;26.924;2023-03-25T03:19:56;98427.84;;;7.87;81.89
37856;BME280;23694;43.274;26.924;2023-03-25T03:22:40;98427.47;;;7.79;82.50
37856;BME280;23694;43.274;26.924;2023-03-25T03:28:04;98426.19;;;7.99;80.93
37856;BME280;23694;43.274;26.924;2023-03-25T03:33:52;98415.88;;;7.70;81.41
37856;BME280;23694;43.274;26.924;2023-03-25T03:36:28;98424.69;;;7.82;81.44
37856;BME280;23694;43.274;26.924;2023-03-25T03:39:07;98424.53;;;7.71;81.66
37856;BME280;23694;43.274;26.924;2023-03-25T03:41:38;98420.75;;;7.62;82.13
37856;BME280;23694;43.274;26.924;2023-03-25T03:44:11;98422.22;;;7.66;81.86
37856;BME280;23694;43.274;26.924;2023-03-25T03:46:45;98416.66;;;7.58;82.08
37856;BME280;23694;43.274;26.924;2023-03-25T03:49:16;98419.03;;;7.48;82.87
37856;BME280;23694;43.274;26.924;2023-03-25T03:51:58;98421.44;;;7.51;82.90
37856;BME280;23694;43.274;26.924;2023-03-25T03:54:31;98411.13;;;7.50;82.69
37856;BME280;23694;43.274;26.924;2023-03-25T03:57:05;98410.47;;;7.46;83.17
37856;BME280;23694;43.274;26.924;2023-03-25T03:59:55;98391.69;;;7.41;82.75
37856;BME280;23694;43.274;26.924;2023-03-25T04:04:53;98405.72;;;7.53;83.73
37856;BME280;23694;43.274;26.924;2023-03-25T04:07:38;98408.22;;;7.54;83.28
37856;BME280;23694;43.274;26.924;2023-03-25T04:10:21;98406.44;;;7.55;83.15
37856;BME280;23694;43.274;26.924;2023-03-25T04:12:54;98400.94;;;7.59;82.73
37856;BME280;23694;43.274;26.924;2023-03-25T04:15:21;98393.78;;;7.76;82.31
37856;BME280;23694;43.274;26.924;2023-03-25T04:17:47;98393.63;;;7.91;81.76
37856;BME280;23694;43.274;26.924;2023-03-25T04:20:15;98396.28;;;8.17;80.52
37856;BME280;23694;43.274;26.924;2023-03-25T04:22:49;98394.03;;;8.63;78.88
37856;BME280;23694;43.274;26.924;2023-03-25T04:25:17;98400.91;;;9.26;75.52
37856;BME280;23694;43.274;26.924;2023-03-25T04:27:46;98395.28;;;9.67;73.59
37856;BME280;23694;43.274;26.924;2023-03-25T04:30:14;98396.78;;;10.06;71.47
37856;BME280;23694;43.274;26.924;2023-03-25T04:32:45;98401.19;;;10.63;68.85
37856;BME280;23694;43.274;26.924;2023-03-25T04:35:13;98390.00;;;10.72;66.86
37856;BME280;23694;43.274;26.924;2023-03-25T04:37:39;98395.97;;;10.52;66.76
37856;BME280;23694;43.274;26.924;2023-03-25T04:40:07;98398.16;;;10.34;67.32
37856;BME280;23694;43.274;26.924;2023-03-25T04:42:34;98393.03;;;10.33;68.17
37856;BME280;23694;43.274;26.924;2023-03-25T04:45:05;98389.88;;;10.96;66.77
37856;BME280;23694;43.274;26.924;2023-03-25T04:47:32;98397.19;;;11.90;63.28
37856;BME280;23694;43.274;26.924;2023-03-25T04:49:58;98391.69;;;12.86;58.76
37856;BME280;23694;43.274;26.924;2023-03-25T04:52:24;98396.13;;;13.95;54.88
37856;BME280;23694;43.274;26.924;2023-03-25T04:54:50;98391.19;;;14.95;50.83
37856;BME280;23694;43.274;26.924;2023-03-25T04:57:16;98392.56;;;15.81;47.39
37856;BME280;23694;43.274;26.924;2023-03-25T04:59:42;98404.03;;;16.52;45.08
37856;BME280;23694;43.274;26.924;2023-03-25T05:02:10;98404.75;;;17.22;43.55
37856;BME280;23694;43.274;26.924;2023-03-25T05:04:38;98398.69;;;18.04;41.40
37856;BME280;23694;43.274;26.924;2023-03-25T05:07:07;98395.16;;;18.93;39.37
37856;BME280;23694;43.274;26.924;2023-03-25T05:09:33;98400.34;;;19.65;37.25
37856;BME280;23694;43.274;26.924;2023-03-25T05:11:59;98415.72;;;20.23;35.65
37856;BME280;23694;43.274;26.924;2023-03-25T05:14:25;98408.88;;;20.29;34.91
37856;BME280;23694;43.274;26.924;2023-03-25T05:16:51;98410.44;;;20.61;34.07
37856;BME280;23694;43.274;26.924;2023-03-25T05:19:17;98413.88;;;20.99;33.69
37856;BME280;23694;43.274;26.924;2023-03-25T05:21:44;98409.91;;;21.39;32.63
37856;BME280;23694;43.274;26.924;2023-03-25T05:24:11;98403.03;;;22.02;32.08
37856;BME280;23694;43.274;26.924;2023-03-25T05:26:40;98399.47;;;22.80;30.42
37856;BME280;23694;43.274;26.924;2023-03-25T05:29:08;98401.47;;;23.47;29.42
37856;BME280;23694;43.274;26.924;2023-03-25T05:31:43;98400.16;;;23.97;28.65
37856;BME280;23694;43.274;26.924;2023-03-25T05:34:13;98390.97;;;24.59;27.68
37856;BME280;23694;43.274;26.924;2023-03-25T05:36:41;98395.06;;;25.02;26.96
37856;BME280;23694;43.274;26.924;2023-03-25T05:39:08;98401.22;;;25.15;26.21
37856;BME280;23694;43.274;26.924;2023-03-25T05:41:35;98385.09;;;25.22;26.23
37856;BME280;23694;43.274;26.924;2023-03-25T05:44:09;98402.63;;;25.24;26.17
37856;BME280;23694;43.274;26.924;2023-03-25T05:46:39;98402.69;;;24.91;26.62
37856;BME280;23694;43.274;26.924;2023-03-25T05:49:06;98404.34;;;25.06;26.52
37856;BME280;23694;43.274;26.924;2023-03-25T05:51:33;98400.50;;;25.46;25.89
37856;BME280;23694;43.274;26.924;2023-03-25T05:54:02;98398.09;;;25.18;26.18
37856;BME280;23694;43.274;26.924;2023-03-25T05:56:33;98398.25;;;25.43;26.12
37856;BME280;23694;43.274;26.924;2023-03-25T05:59:01;98401.00;;;25.75;26.12
37856;BME280;23694;43.274;26.924;2023-03-25T06:01:28;98396.59;;;25.36;26.30
37856;BME280;23694;43.274;26.924;2023-03-25T06:03:54;98388.63;;;25.16;26.05
37856;BME280;23694;43.274;26.924;2023-03-25T06:06:22;98394.94;;;23.56;28.30
37856;BME280;23694;43.274;26.924;2023-03-25T06:08:51;98404.03;;;21.43;32.16
37856;BME280;23694;43.274;26.924;2023-03-25T06:11:18;98392.56;;;22.43;31.53
37856;BME280;23694;43.274;26.924;2023-03-25T06:13:46;98398.06;;;22.63;30.20
37856;BME280;23694;43.274;26.924;2023-03-25T06:16:23;98397.47;;;22.89;30.48
37856;BME280;23694;43.274;26.924;2023-03-25T06:18:54;98407.22;;;21.68;33.53
37856;BME280;23694;43.274;26.924;2023-03-25T06:21:30;98415.38;;;18.94;36.38
37856;BME280;23694;43.274;26.924;2023-03-25T06:23:58;98415.78;;;18.26;39.37
37856;BME280;23694;43.274;26.924;2023-03-25T06:26:26;98409.44;;;17.86;39.75
37856;BME280;23694;43.274;26.924;2023-03-25T06:28:52;98416.28;;;16.17;44.16
37856;BME280;23694;43.274;26.924;2023-03-25T06:31:22;98418.16;;;14.89;47.87
37856;BME280;23694;43.274;26.924;2023-03-25T06:33:51;98414.25;;;15.03;48.66
37856;BME280;23694;43.274;26.924;2023-03-25T06:36:18;98408.53;;;15.07;51.51
37856;BME280;23694;43.274;26.924;2023-03-25T06:38:45;98414.00;;;15.23;51.44
37856;BME280;23694;43.274;26.924;2023-03-25T06:41:14;98402.91;;;15.20;51.54
37856;BME280;23694;43.274;26.924;2023-03-25T06:43:40;98409.16;;;15.19;51.34
37856;BME280;23694;43.274;26.924;2023-03-25T06:46:06;98410.22;;;15.26;50.44
37856;BME280;23694;43.274;26.924;2023-03-25T06:48:35;98416.03;;;15.02;51.63
37856;BME280;23694;43.274;26.924;2023-03-25T06:51:02;98411.47;;;14.57;53.69
37856;BME280;23694;43.274;26.924;2023-03-25T06:53:28;98414.09;;;14.19;55.62
37856;BME280;23694;43.274;26.924;2023-03-25T06:55:58;98409.28;;;14.05;57.20
37856;BME280;23694;43.274;26.924;2023-03-25T06:58:24;98405.38;;;14.09;56.61
37856;BME280;23694;43.274;26.924;2023-03-25T07:00:53;98399.31;;;13.79;57.16
37856;BME280;23694;43.274;26.924;2023-03-25T07:03:19;98408.84;;;13.71;56.01
37856;BME280;23694;43.274;26.924;2023-03-25T07:05:48;98406.94;;;13.82;56.84
37856;BME280;23694;43.274;26.924;2023-03-25T07:08:15;98408.44;;;13.94;56.53
37856;BME280;23694;43.274;26.924;2023-03-25T07:10:41;98408.00;;;14.18;56.10
37856;BME280;23694;43.274;26.924;2023-03-25T07:13:08;98395.97;;;14.45;56.41
37856;BME280;23694;43.274;26.924;2023-03-25T07:15:34;98396.66;;;14.84;55.29
37856;BME280;23694;43.274;26.924;2023-03-25T07:18:00;98401.13;;;15.38;53.11
37856;BME280;23694;43.274;26.924;2023-03-25T07:20:26;98402.41;;;15.07;51.74
37856;BME280;23694;43.274;26.924;2023-03-25T07:22:53;98403.56;;;14.57;54.60
37856;BME280;23694;43.274;26.924;2023-03-25T07:25:20;98397.72;;;15.01;53.36
37856;BME280;23694;43.274;26.924;2023-03-25T07:27:47;98389.97;;;14.89;54.00
37856;BME280;23694;43.274;26.924;2023-03-25T07:30:13;98397.03;;;14.99;54.56
37856;BME280;23694;43.274;26.924;2023-03-25T07:32:39;98397.44;;;15.04;53.16
37856;BME280;23694;43.274;26.924;2023-03-25T07:35:05;98389.31;;;15.15;52.21
37856;BME280;23694;43.274;26.924;2023-03-25T07:37:34;98385.66;;;14.98;53.96
37856;BME280;23694;43.274;26.924;2023-03-25T07:40:00;98385.34;;;15.29;51.93
37856;BME280;23694;43.274;26.924;2023-03-25T07:42:26;98392.22;;;14.84;53.86
37856;BME280;23694;43.274;26.924;2023-03-25T07:44:52;98388.84;;;15.02;53.14
37856;BME280;23694;43.274;26.924;2023-03-25T07:47:18;98392.31;;;14.93;53.86
37856;BME280;23694;43.274;26.924;2023-03-25T07:49:44;98371.78;;;14.59;55.66
37856;BME280;23694;43.274;26.924;2023-03-25T07:52:11;98377.97;;;14.77;54.94
37856;BME280;23694;43.274;26.924;2023-03-25T07:54:37;98381.63;;;14.94;53.79
37856;BME280;23694;43.274;26.924;2023-03-25T07:57:03;98379.94;;;15.03;53.32
37856;BME280;23694;43.274;26.924;2023-03-25T07:59:29;98369.97;;;15.24;53.63
37856;BME280;23694;43.274;26.924;2023-03-25T08:01:55;98370.47;;;15.55;52.27
37856;BME280;23694;43.274;26.924;2023-03-25T08:04:21;98371.34;;;14.64;53.82
37856;BME280;23694;43.274;26.924;2023-03-25T08:06:47;98378.34;;;14.82;54.06
37856;BME280;23694;43.274;26.924;2023-03-25T08:09:13;98371.16;;;14.75;55.01
37856;BME280;23694;43.274;26.924;2023-03-25T08:11:39;98372.28;;;15.09;54.88
37856;BME280;23694;43.274;26.924;2023-03-25T08:14:05;98368.94;;;15.80;53.62
37856;BME280;23694;43.274;26.924;2023-03-25T08:16:31;98357.69;;;15.96;51.82
37856;BME280;23694;43.274;26.924;2023-03-25T08:18:57;98354.78;;;16.07;51.84
37856;BME280;23694;43.274;26.924;2023-03-25T08:21:23;98347.91;;;16.32;51.04
37856;BME280;23694;43.274;26.924;2023-03-25T08:23:51;98356.72;;;15.51;51.81
37856;BME280;23694;43.274;26.924;2023-03-25T08:26:26;98350.94;;;15.48;53.77
37856;BME280;23694;43.274;26.924;2023-03-25T08:28:53;98350.91;;;16.37;50.93
37856;BME280;23694;43.274;26.924;2023-03-25T08:31:26;98353.47;;;16.80;49.12
37856;BME280;23694;43.274;26.924;2023-03-25T08:33:56;98349.66;;;16.75;48.86
37856;BME280;23694;43.274;26.924;2023-03-25T08:36:22;98353.25;;;16.66;48.44
37856;BME280;23694;43.274;26.924;2023-03-25T08:38:49;98345.31;;;16.66;49.74
37856;BME280;23694;43.274;26.924;2023-03-25T08:41:16;98341.88;;;16.47;49.75
37856;BME280;23694;43.274;26.924;2023-03-25T08:43:42;98350.22;;;16.61;49.73
37856;BME280;23694;43.274;26.924;2023-03-25T08:46:09;98345.34;;;16.48;49.32
37856;BME280;23694;43.274;26.924;2023-03-25T08:48:35;98345.88;;;16.08;51.40
37856;BME280;23694;43.274;26.924;2023-03-25T08:51:02;98347.88;;;16.58;49.78
37856;BME280;23694;43.274;26.924;2023-03-25T08:53:28;98341.47;;;16.34;51.00
37856;BME280;23694;43.274;26.924;2023-03-25T08:55:56;98342.34;;;16.69;50.13
37856;BME280;23694;43.274;26.924;2023-03-25T08:58:23;98339.34;;;16.38;51.30
37856;BME280;23694;43.274;26.924;2023-03-25T09:00:54;98339.69;;;16.95;49.82
37856;BME280;23694;43.274;26.924;2023-03-25T09:03:21;98342.38;;;17.11;49.28
37856;BME280;23694;43.274;26.924;2023-03-25T09:05:48;98334.81;;;17.24;49.12
37856;BME280;23694;43.274;26.924;2023-03-25T09:08:14;98330.50;;;17.23;49.01
37856;BME280;23694;43.274;26.924;2023-03-25T09:10:40;98325.25;;;16.89;50.29
37856;BME280;23694;43.274;26.924;2023-03-25T09:13:06;98324.19;;;17.16;50.31
37856;BME280;23694;43.274;26.924;2023-03-25T09:15:32;98325.56;;;17.36;49.50
37856;BME280;23694;43.274;26.924;2023-03-25T09:17:59;98328.88;;;17.38;48.97
37856;BME280;23694;43.274;26.924;2023-03-25T09:20:25;98326.91;;;17.49;49.00
37856;BME280;23694;43.274;26.924;2023-03-25T09:22:51;98303.31;;;17.96;47.41
37856;BME280;23694;43.274;26.924;2023-03-25T09:25:18;98310.06;;;18.06;46.92
37856;BME280;23694;43.274;26.924;2023-03-25T09:27:44;98328.72;;;17.48;48.26
37856;BME280;23694;43.274;26.924;2023-03-25T09:30:11;98312.91;;;17.97;47.34
37856;BME280;23694;43.274;26.924;2023-03-25T09:32:37;98315.84;;;18.18;47.03
37856;BME280;23694;43.274;26.924;2023-03-25T09:35:03;98306.09;;;18.19;46.54
37856;BME280;23694;43.274;26.924;2023-03-25T09:37:30;98313.56;;;18.23;47.26
37856;BME280;23694;43.274;26.924;2023-03-25T09:39:56;98296.50;;;17.93;48.30
37856;BME280;23694;43.274;26.924;2023-03-25T09:47:35;98295.00;;;18.07;46.90
37856;BME280;23694;43.274;26.924;2023-03-25T09:50:05;98294.66;;;18.18;45.94
37856;BME280;23694;43.274;26.924;2023-03-25T09:52:42;98286.69;;;18.34;45.45
37856;BME280;23694;43.274;26.924;2023-03-25T09:55:18;98279.91;;;18.32;45.47
37856;BME280;23694;43.274;26.924;2023-03-25T09:57:47;98284.84;;;18.43;45.03
37856;BME280;23694;43.274;26.924;2023-03-25T10:00:18;98285.97;;;18.65;44.74
37856;BME280;23694;43.274;26.924;2023-03-25T10:14:08;98264.50;;;18.83;43.48
37856;BME280;23694;43.274;26.924;2023-03-25T10:16:44;98257.81;;;18.95;41.98
37856;BME280;23694;43.274;26.924;2023-03-25T10:22:31;98254.03;;;18.89;41.97
37856;BME280;23694;43.274;26.924;2023-03-25T10:25:07;98237.00;;;19.07;41.93
37856;BME280;23694;43.274;26.924;2023-03-25T10:27:42;98235.25;;;19.22;41.57
37856;BME280;23694;43.274;26.924;2023-03-25T10:33:14;98232.41;;;19.23;41.15
37856;BME280;23694;43.274;26.924;2023-03-25T10:35:44;98223.22;;;19.34;41.71
37856;BME280;23694;43.274;26.924;2023-03-25T10:38:16;98210.34;;;19.00;43.01
37856;BME280;23694;43.274;26.924;2023-03-25T10:40:46;98208.13;;;18.81;43.22
37856;BME280;23694;43.274;26.924;2023-03-25T10:43:30;98205.03;;;18.69;44.00
37856;BME280;23694;43.274;26.924;2023-03-25T10:49:20;98191.41;;;19.26;42.56
37856;BME280;23694;43.274;26.924;2023-03-25T10:51:49;98187.06;;;19.48;42.45
37856;BME280;23694;43.274;26.924;2023-03-25T10:54:19;98183.81;;;19.00;42.84
37856;BME280;23694;43.274;26.924;2023-03-25T10:56:50;98179.19;;;19.62;41.25
37856;BME280;23694;43.274;26.924;2023-03-25T11:01:58;98178.81;;;20.83;37.87
37856;BME280;23694;43.274;26.924;2023-03-25T11:04:37;98169.16;;;21.40;30.47
37856;BME280;23694;43.274;26.924;2023-03-25T11:07:35;98161.31;;;21.88;27.85
37856;BME280;23694;43.274;26.924;2023-03-25T11:10:25;98152.94;;;22.19;28.13
37856;BME280;23694;43.274;26.924;2023-03-25T11:12:52;98150.75;;;22.35;27.34
37856;BME280;23694;43.274;26.924;2023-03-25T11:15:24;98146.53;;;22.61;26.67
37856;BME280;23694;43.274;26.924;2023-03-25T11:18:01;98148.22;;;22.75;26.85
37856;BME280;23694;43.274;26.924;2023-03-25T11:20:38;98146.03;;;22.85;26.51
37856;BME280;23694;43.274;26.924;2023-03-25T11:23:07;98145.25;;;23.04;26.96
37856;BME280;23694;43.274;26.924;2023-03-25T11:25:39;98126.53;;;22.85;26.33
37856;BME280;23694;43.274;26.924;2023-03-25T11:28:18;98126.53;;;22.98;26.44
37856;BME280;23694;43.274;26.924;2023-03-25T11:33:32;98130.88;;;23.19;27.05
37856;BME280;23694;43.274;26.924;2023-03-25T11:36:31;98135.59;;;23.36;26.67
37856;BME280;23694;43.274;26.924;2023-03-25T11:38:58;98123.47;;;23.34;26.98
37856;BME280;23694;43.274;26.924;2023-03-25T11:41:29;98109.94;;;23.55;26.84
37856;BME280;23694;43.274;26.924;2023-03-25T11:43:57;98112.16;;;23.32;25.48
37856;BME280;23694;43.274;26.924;2023-03-25T11:46:23;98106.22;;;23.30;26.73
37856;BME280;23694;43.274;26.924;2023-03-25T11:48:50;98101.28;;;23.47;26.12
37856;BME280;23694;43.274;26.924;2023-03-25T11:51:28;98112.41;;;23.57;27.00
37856;BME280;23694;43.274;26.924;2023-03-25T11:54:05;98085.03;;;23.35;26.61
37856;BME280;23694;43.274;26.924;2023-03-25T11:56:34;98106.03;;;23.58;26.38
37856;BME280;23694;43.274;26.924;2023-03-25T11:59:02;98100.88;;;23.63;26.13
37856;BME280;23694;43.274;26.924;2023-03-25T12:01:39;98100.47;;;23.73;26.31
37856;BME280;23694;43.274;26.924;2023-03-25T12:04:22;98083.16;;;23.82;26.43
37856;BME280;23694;43.274;26.924;2023-03-25T12:07:06;98081.50;;;23.87;26.57
37856;BME280;23694;43.274;26.924;2023-03-25T12:09:36;98084.97;;;23.94;27.68
37856;BME280;23694;43.274;26.924;2023-03-25T12:12:27;98074.94;;;23.77;27.44
37856;BME280;23694;43.274;26.924;2023-03-25T12:15:05;98076.59;;;23.71;28.09
37856;BME280;23694;43.274;26.924;2023-03-25T12:31:19;98072.50;;;23.62;29.18
37856;BME280;23694;43.274;26.924;2023-03-25T12:36:59;98067.78;;;23.31;30.08
37856;BME280;23694;43.274;26.924;2023-03-25T12:42:13;98050.31;;;23.22;30.34
37856;BME280;23694;43.274;26.924;2023-03-25T12:45:05;98041.06;;;23.24;30.16
37856;BME280;23694;43.274;26.924;2023-03-25T12:47:45;98045.59;;;23.11;30.51
37856;BME280;23694;43.274;26.924;2023-03-25T12:53:23;98036.13;;;23.61;30.01
37856;BME280;23694;43.274;26.924;2023-03-25T12:56:25;98031.81;;;23.60;28.97
37856;BME280;23694;43.274;26.924;2023-03-25T13:01:49;98028.09;;;23.61;28.35
37856;BME280;23694;43.274;26.924;2023-03-25T13:07:17;98026.88;;;23.37;28.66
37856;BME280;23694;43.274;26.924;2023-03-25T13:12:28;98019.06;;;23.29;28.73
37856;BME280;23694;43.274;26.924;2023-03-25T13:15:04;98031.63;;;22.95;29.08
37856;BME280;23694;43.274;26.924;2023-03-25T13:17:49;98025.88;;;22.98;29.08
37856;BME280;23694;43.274;26.924;2023-03-25T13:20:17;98033.47;;;23.08;28.95
37856;BME280;23694;43.274;26.924;2023-03-25T13:22:51;98021.16;;;23.14;28.72
37856;BME280;23694;43.274;26.924;2023-03-25T13:25:39;98026.06;;;23.23;28.91
37856;BME280;23694;43.274;26.924;2023-03-25T13:28:12;98029.97;;;23.14;28.35
37856;BME280;23694;43.274;26.924;2023-03-25T13:30:43;98028.56;;;23.05;28.51
37856;BME280;23694;43.274;26.924;2023-03-25T13:33:15;98020.97;;;22.89;28.34
37856;BME280;23694;43.274;26.924;2023-03-25T13:36:33;98022.00;;;22.81;28.46
37856;BME280;23694;43.274;26.924;2023-03-25T13:39:01;98020.34;;;22.93;28.31
37856;BME280;23694;43.274;26.924;2023-03-25T13:41:40;98017.66;;;22.93;27.87
37856;BME280;23694;43.274;26.924;2023-03-25T13:46:47;98016.84;;;23.13;27.33
37856;BME280;23694;43.274;26.924;2023-03-25T13:49:17;98007.81;;;23.07;27.64
37856;BME280;23694;43.274;26.924;2023-03-25T13:51:46;98007.56;;;23.22;27.57
37856;BME280;23694;43.274;26.924;2023-03-25T13:54:21;98011.50;;;23.13;26.95
37856;BME280;23694;43.274;26.924;2023-03-25T14:10:37;98001.38;;;22.68;28.67
37856;BME280;23694;43.274;26.924;2023-03-25T14:13:13;98003.22;;;22.41;29.32
37856;BME280;23694;43.274;26.924;2023-03-25T14:16:14;98002.59;;;22.39;29.98
37856;BME280;23694;43.274;26.924;2023-03-25T14:19:02;98011.19;;;22.28;30.03
37856;BME280;23694;43.274;26.924;2023-03-25T14:24:09;98008.97;;;21.91;30.77
37856;BME280;23694;43.274;26.924;2023-03-25T14:26:43;98006.72;;;21.94;31.03
37856;BME280;23694;43.274;26.924;2023-03-25T14:29:20;98015.41;;;22.09;31.39
37856;BME280;23694;43.274;26.924;2023-03-25T14:34:31;98013.56;;;22.10;31.57
37856;BME280;23694;43.274;26.924;2023-03-25T14:44:36;97995.38;;;22.20;31.80
37856;BME280;23694;43.274;26.924;2023-03-25T14:49:54;97997.44;;;22.25;31.63
37856;BME280;23694;43.274;26.924;2023-03-25T14:52:32;98000.31;;;22.30;31.61
37856;BME280;23694;43.274;26.924;2023-03-25T14:55:17;97994.56;;;22.26;32.13
37856;BME280;23694;43.274;26.924;2023-03-25T14:57:46;97996.75;;;22.09;32.53
37856;BME280;23694;43.274;26.924;2023-03-25T15:00:22;97994.63;;;21.98;32.27
37856;BME280;23694;43.274;26.924;2023-03-25T15:03:13;97993.56;;;21.86;32.51
37856;BME280;23694;43.274;26.924;2023-03-25T15:05:43;97994.53;;;21.72;32.65
37856;BME280;23694;43.274;26.924;2023-03-25T15:08:19;97995.94;;;21.61;33.27
37856;BME280;23694;43.274;26.924;2023-03-25T15:13:34;97999.34;;;21.48;33.14
37856;BME280;23694;43.274;26.924;2023-03-25T15:16:16;98009.72;;;21.37;33.50
37856;BME280;23694;43.274;26.924;2023-03-25T15:26:04;98004.00;;;21.12;33.06
37856;BME280;23694;43.274;26.924;2023-03-25T15:31:24;98015.91;;;20.88;33.21
37856;BME280;23694;43.274;26.924;2023-03-25T15:40:14;98013.88;;;20.47;34.30
37856;BME280;23694;43.274;26.924;2023-03-25T15:43:21;98013.88;;;20.47;34.26
37856;BME280;23694;43.274;26.924;2023-03-25T15:51:51;98012.69;;;20.35;34.44
37856;BME280;23694;43.274;26.924;2023-03-25T15:56:48;98020.63;;;20.29;34.69